الصفحة الرئيسية
METAR-TAF:

METAR-TAF

مطار :

نوشهر, إيران

دائرة عرض: 36-39-48N, خط طول: 051-27-53E, ارتفاع: 0 متر

مراقبة الطقس الحالي

تاريخ ووقت الإصدار 1ساعة و 6 دقيقة قبل الساعة 02:00UTC
ريح 2 عقدة من الجنوب
درجة الحرارة 24°درجة مئوية
الرطوبة 83%
ضغط 1012 hPa
الرؤية: 7000 متر
غيوم مفككة على ارتفاع 2800 قدم

METAR: OINN 200200Z 19002KT 7000 BKN028 24/21 Q1012

زمن: 07:36 (03:06 UTC)


TAF: مفقودة

أرصاد الطقس والتوقعات من أكثر من 4000 مطار (تقارير الطقس للمطار METAR والتنبؤ بالطقس بالمطارTAF).

المحطات المتاحة هي النقط الصفراء والحمراء على الخريطة.

حرك المؤشر فوق النقطة لمعرفة اسم المحطة.

ثم انقر لمعرفة أرصاد وتوقعات الطقس.

لتغيير الخارطة: اضغط على الأزرار الخضراء مع رمز الصليب الأسود للتكبير. على الزر الأخضر مع شرطة للتصغير، أو على الأسهم الخضراء للخرائط المجاورة.


METAR-TAF: